LiveATC.Net - Listen to live air traffic control over the Internet!


ICAO: KLZU  IATA: LZU   Airport: Gwinnett County Airport-Briscoe Field
City: Lawrenceville   State/Province: Georgia
Country: United States   Continent: North America
KLZU METAR Weather: KLZU 082056Z 00000KT 10SM FEW065 33/19 A3012 RMK AO2 SLPNO T03280194 56017
KLZU Flight Activity (FlightAware)
KLZU Airport Info   (iFlightPlanner)
KLZU VFR Sectional Chart   (iFlightPlanner) 
KLZU IFR Low Chart   (iFlightPlanner) 

KLZU Tower
Feed Status: UP   Listeners: 1
Listen in your browser - HTML5 player (in browser, HTML5)
Click here to listen with your own player (launches your MP3 player)
Archive Access: KLZU Tower
FacilityFrequency
Gwinnett Tower124.100

NOTICE

Unauthorized use prohibited. See LiveATC.net Terms of Service


Airport/ARTCC Code
Frequency Search
(e.g., 124.400, 128.75)
Site-wide search
 


Browse Feeds
Top 50 Feeds
Coverage Map
Bad Weather Areas

LiveATC FAQ
Offer LiveATC feed
Contact LiveATC.net
Press Inquiries

LiveATC on iPhone
LiveATC on Android

Windows Phone
Windows 8/10

LiveATC Mobile
(Mobile browser)

ATC Audio Archives
Interesting Recordings

LiveATC Forums


Home Page
About LiveATC.net
Make a Donation
Terms of Use
Privacy Policy

Canadian Air Freqs

AIRMETs/SIGMETs

FAA Airport Status
Nat'l Airspace Status
Arrival Demand Charts


Server Software By:
Icecast.org
Liquidsoap